sensor_id;sensor_type;location;lat;lon;timestamp;P1;durP1;ratioP1;P2;durP2;ratioP2
46651;SDS011;32377;52.182;5.398;2022-09-21T00:00:07;16.92;;;7.18;;
46651;SDS011;32377;52.182;5.398;2022-09-21T00:02:33;7.93;;;4.95;;
46651;SDS011;32377;52.182;5.398;2022-09-21T00:04:58;9.60;;;4.63;;
46651;SDS011;32377;52.182;5.398;2022-09-21T00:07:24;14.55;;;4.80;;
46651;SDS011;32377;52.182;5.398;2022-09-21T00:09:50;10.50;;;5.00;;
46651;SDS011;32377;52.182;5.398;2022-09-21T00:12:15;18.17;;;5.90;;
46651;SDS011;32377;52.182;5.398;2022-09-21T00:14:41;10.57;;;5.38;;
46651;SDS011;32377;52.182;5.398;2022-09-21T00:17:07;21.27;;;5.13;;
46651;SDS011;32377;52.182;5.398;2022-09-21T00:19:33;10.18;;;5.13;;
46651;SDS011;32377;52.182;5.398;2022-09-21T00:21:59;16.30;;;4.72;;
46651;SDS011;32377;52.182;5.398;2022-09-21T00:24:25;9.82;;;5.57;;
46651;SDS011;32377;52.182;5.398;2022-09-21T00:26:52;11.15;;;5.38;;
46651;SDS011;32377;52.182;5.398;2022-09-21T00:29:18;11.75;;;5.38;;
46651;SDS011;32377;52.182;5.398;2022-09-21T00:31:43;10.82;;;5.22;;
46651;SDS011;32377;52.182;5.398;2022-09-21T00:34:09;12.75;;;5.60;;
46651;SDS011;32377;52.182;5.398;2022-09-21T00:36:34;12.90;;;5.57;;
46651;SDS011;32377;52.182;5.398;2022-09-21T00:39:00;13.27;;;5.50;;
46651;SDS011;32377;52.182;5.398;2022-09-21T00:41:27;11.02;;;5.18;;
46651;SDS011;32377;52.182;5.398;2022-09-21T00:46:49;13.60;;;5.28;;
46651;SDS011;32377;52.182;5.398;2022-09-21T00:49:17;11.23;;;5.15;;
46651;SDS011;32377;52.182;5.398;2022-09-21T00:51:45;12.10;;;5.03;;
46651;SDS011;32377;52.182;5.398;2022-09-21T00:54:13;10.55;;;5.28;;
46651;SDS011;32377;52.182;5.398;2022-09-21T00:56:47;13.73;;;5.50;;
46651;SDS011;32377;52.182;5.398;2022-09-21T00:59:12;10.63;;;5.22;;
46651;SDS011;32377;52.182;5.398;2022-09-21T01:01:40;12.98;;;5.38;;
46651;SDS011;32377;52.182;5.398;2022-09-21T01:04:07;10.52;;;5.28;;
46651;SDS011;32377;52.182;5.398;2022-09-21T01:06:33;9.77;;;5.05;;
46651;SDS011;32377;52.182;5.398;2022-09-21T01:09:02;9.35;;;5.43;;
46651;SDS011;32377;52.182;5.398;2022-09-21T01:14:21;9.00;;;5.25;;
46651;SDS011;32377;52.182;5.398;2022-09-21T01:28:26;17.10;;;5.75;;
46651;SDS011;32377;52.182;5.398;2022-09-21T01:31:19;15.13;;;5.88;;
46651;SDS011;32377;52.182;5.398;2022-09-21T01:33:53;7.63;;;4.70;;
46651;SDS011;32377;52.182;5.398;2022-09-21T01:36:24;14.25;;;5.15;;
46651;SDS011;32377;52.182;5.398;2022-09-21T01:39:04;13.07;;;5.95;;
46651;SDS011;32377;52.182;5.398;2022-09-21T01:41:36;12.70;;;5.93;;
46651;SDS011;32377;52.182;5.398;2022-09-21T01:44:14;11.50;;;5.68;;
46651;SDS011;32377;52.182;5.398;2022-09-21T01:46:44;11.90;;;6.43;;
46651;SDS011;32377;52.182;5.398;2022-09-21T01:49:12;15.32;;;6.97;;
46651;SDS011;32377;52.182;5.398;2022-09-21T01:54:17;10.55;;;5.85;;
46651;SDS011;32377;52.182;5.398;2022-09-21T01:56:48;14.98;;;6.78;;
46651;SDS011;32377;52.182;5.398;2022-09-21T01:59:25;11.10;;;7.13;;
46651;SDS011;32377;52.182;5.398;2022-09-21T02:02:01;12.00;;;6.40;;
46651;SDS011;32377;52.182;5.398;2022-09-21T02:04:33;12.43;;;6.95;;
46651;SDS011;32377;52.182;5.398;2022-09-21T02:06:59;10.00;;;6.22;;
46651;SDS011;32377;52.182;5.398;2022-09-21T02:09:25;12.38;;;7.18;;
46651;SDS011;32377;52.182;5.398;2022-09-21T02:11:52;11.25;;;6.78;;
46651;SDS011;32377;52.182;5.398;2022-09-21T02:14:21;13.70;;;6.68;;
46651;SDS011;32377;52.182;5.398;2022-09-21T02:16:55;14.07;;;6.88;;
46651;SDS011;32377;52.182;5.398;2022-09-21T02:19:45;10.20;;;6.93;;
46651;SDS011;32377;52.182;5.398;2022-09-21T02:22:32;14.73;;;6.78;;
46651;SDS011;32377;52.182;5.398;2022-09-21T02:25:15;14.00;;;6.30;;
46651;SDS011;32377;52.182;5.398;2022-09-21T02:27:55;13.18;;;6.82;;
46651;SDS011;32377;52.182;5.398;2022-09-21T02:30:28;12.20;;;6.53;;
46651;SDS011;32377;52.182;5.398;2022-09-21T02:35:30;14.52;;;6.55;;
46651;SDS011;32377;52.182;5.398;2022-09-21T02:38:00;11.50;;;6.07;;
46651;SDS011;32377;52.182;5.398;2022-09-21T02:40:34;14.40;;;7.13;;
46651;SDS011;32377;52.182;5.398;2022-09-21T02:43:02;10.05;;;6.18;;
46651;SDS011;32377;52.182;5.398;2022-09-21T02:45:38;13.48;;;6.65;;
46651;SDS011;32377;52.182;5.398;2022-09-21T02:48:17;12.27;;;6.28;;
46651;SDS011;32377;52.182;5.398;2022-09-21T02:50:49;10.50;;;6.60;;
46651;SDS011;32377;52.182;5.398;2022-09-21T02:53:20;11.50;;;6.10;;
46651;SDS011;32377;52.182;5.398;2022-09-21T02:55:53;9.83;;;6.27;;
46651;SDS011;32377;52.182;5.398;2022-09-21T02:58:20;9.65;;;6.55;;
46651;SDS011;32377;52.182;5.398;2022-09-21T03:00:48;11.10;;;5.97;;
46651;SDS011;32377;52.182;5.398;2022-09-21T03:03:18;11.23;;;5.90;;
46651;SDS011;32377;52.182;5.398;2022-09-21T03:05:45;9.27;;;6.07;;
46651;SDS011;32377;52.182;5.398;2022-09-21T03:08:13;10.43;;;5.88;;
46651;SDS011;32377;52.182;5.398;2022-09-21T03:10:40;11.32;;;6.68;;
46651;SDS011;32377;52.182;5.398;2022-09-21T03:13:06;10.60;;;6.20;;
46651;SDS011;32377;52.182;5.398;2022-09-21T03:15:33;11.68;;;5.82;;
46651;SDS011;32377;52.182;5.398;2022-09-21T03:18:00;14.38;;;6.38;;
46651;SDS011;32377;52.182;5.398;2022-09-21T03:20:26;11.02;;;5.45;;
46651;SDS011;32377;52.182;5.398;2022-09-21T03:22:52;13.35;;;6.07;;
46651;SDS011;32377;52.182;5.398;2022-09-21T03:25:17;10.57;;;6.03;;
46651;SDS011;32377;52.182;5.398;2022-09-21T03:27:43;12.70;;;6.53;;
46651;SDS011;32377;52.182;5.398;2022-09-21T03:30:09;10.60;;;6.03;;
46651;SDS011;32377;52.182;5.398;2022-09-21T03:32:35;9.65;;;6.25;;
46651;SDS011;32377;52.182;5.398;2022-09-21T03:35:00;8.00;;;5.78;;
46651;SDS011;32377;52.182;5.398;2022-09-21T03:37:26;8.88;;;5.78;;
46651;SDS011;32377;52.182;5.398;2022-09-21T03:39:51;9.85;;;5.75;;
46651;SDS011;32377;52.182;5.398;2022-09-21T03:42:17;13.52;;;7.05;;
46651;SDS011;32377;52.182;5.398;2022-09-21T03:44:42;13.30;;;6.45;;
46651;SDS011;32377;52.182;5.398;2022-09-21T03:47:08;16.48;;;6.90;;
46651;SDS011;32377;52.182;5.398;2022-09-21T03:49:34;10.32;;;6.50;;
46651;SDS011;32377;52.182;5.398;2022-09-21T03:51:59;8.88;;;6.65;;
46651;SDS011;32377;52.182;5.398;2022-09-21T03:54:25;8.45;;;5.72;;
46651;SDS011;32377;52.182;5.398;2022-09-21T03:56:50;12.82;;;7.03;;
46651;SDS011;32377;52.182;5.398;2022-09-21T03:59:16;10.25;;;5.78;;
46651;SDS011;32377;52.182;5.398;2022-09-21T04:01:42;9.25;;;6.25;;
46651;SDS011;32377;52.182;5.398;2022-09-21T04:04:08;15.40;;;6.90;;
46651;SDS011;32377;52.182;5.398;2022-09-21T04:06:34;10.73;;;6.85;;
46651;SDS011;32377;52.182;5.398;2022-09-21T04:09:00;11.10;;;6.45;;
46651;SDS011;32377;52.182;5.398;2022-09-21T04:11:27;12.52;;;7.03;;
46651;SDS011;32377;52.182;5.398;2022-09-21T04:13:54;12.02;;;6.32;;
46651;SDS011;32377;52.182;5.398;2022-09-21T04:16:25;11.45;;;7.13;;
46651;SDS011;32377;52.182;5.398;2022-09-21T04:18:51;13.15;;;6.70;;
46651;SDS011;32377;52.182;5.398;2022-09-21T04:21:17;11.45;;;6.15;;
46651;SDS011;32377;52.182;5.398;2022-09-21T04:23:44;11.85;;;6.40;;
46651;SDS011;32377;52.182;5.398;2022-09-21T04:26:17;12.25;;;6.07;;
46651;SDS011;32377;52.182;5.398;2022-09-21T04:28:46;12.57;;;6.70;;
46651;SDS011;32377;52.182;5.398;2022-09-21T04:31:13;10.25;;;6.35;;
46651;SDS011;32377;52.182;5.398;2022-09-21T04:33:38;10.88;;;6.65;;
46651;SDS011;32377;52.182;5.398;2022-09-21T04:36:04;10.35;;;5.70;;
46651;SDS011;32377;52.182;5.398;2022-09-21T04:38:30;12.60;;;6.38;;
46651;SDS011;32377;52.182;5.398;2022-09-21T04:40:56;10.73;;;6.57;;
46651;SDS011;32377;52.182;5.398;2022-09-21T04:43:22;10.00;;;6.30;;
46651;SDS011;32377;52.182;5.398;2022-09-21T04:45:47;9.32;;;5.60;;
46651;SDS011;32377;52.182;5.398;2022-09-21T04:48:13;16.92;;;6.60;;
46651;SDS011;32377;52.182;5.398;2022-09-21T04:50:39;11.18;;;6.15;;
46651;SDS011;32377;52.182;5.398;2022-09-21T04:53:04;9.10;;;5.57;;
46651;SDS011;32377;52.182;5.398;2022-09-21T04:55:30;13.95;;;6.68;;
46651;SDS011;32377;52.182;5.398;2022-09-21T04:57:56;11.18;;;6.70;;
46651;SDS011;32377;52.182;5.398;2022-09-21T05:00:22;12.85;;;5.93;;
46651;SDS011;32377;52.182;5.398;2022-09-21T05:02:47;11.02;;;6.32;;
46651;SDS011;32377;52.182;5.398;2022-09-21T05:05:13;11.73;;;7.20;;
46651;SDS011;32377;52.182;5.398;2022-09-21T05:07:39;15.32;;;6.00;;
46651;SDS011;32377;52.182;5.398;2022-09-21T05:10:04;9.95;;;6.07;;
46651;SDS011;32377;52.182;5.398;2022-09-21T05:12:31;10.15;;;6.15;;
46651;SDS011;32377;52.182;5.398;2022-09-21T05:14:57;13.00;;;6.32;;
46651;SDS011;32377;52.182;5.398;2022-09-21T05:17:23;10.50;;;6.20;;
46651;SDS011;32377;52.182;5.398;2022-09-21T05:19:49;15.38;;;7.03;;
46651;SDS011;32377;52.182;5.398;2022-09-21T05:22:16;15.88;;;5.65;;
46651;SDS011;32377;52.182;5.398;2022-09-21T05:24:42;12.55;;;6.03;;
46651;SDS011;32377;52.182;5.398;2022-09-21T05:27:08;14.50;;;7.75;;
46651;SDS011;32377;52.182;5.398;2022-09-21T05:29:34;10.85;;;5.72;;
46651;SDS011;32377;52.182;5.398;2022-09-21T05:34:44;12.75;;;6.80;;
46651;SDS011;32377;52.182;5.398;2022-09-21T05:40:20;11.25;;;6.25;;
46651;SDS011;32377;52.182;5.398;2022-09-21T05:42:46;11.63;;;6.20;;
46651;SDS011;32377;52.182;5.398;2022-09-21T05:45:13;15.48;;;7.72;;
46651;SDS011;32377;52.182;5.398;2022-09-21T05:55:55;11.48;;;7.50;;
46651;SDS011;32377;52.182;5.398;2022-09-21T05:58:34;15.38;;;8.27;;
46651;SDS011;32377;52.182;5.398;2022-09-21T06:03:39;15.40;;;7.63;;
46651;SDS011;32377;52.182;5.398;2022-09-21T06:06:06;12.80;;;8.13;;
46651;SDS011;32377;52.182;5.398;2022-09-21T06:08:33;25.75;;;8.25;;
46651;SDS011;32377;52.182;5.398;2022-09-21T06:10:58;11.52;;;6.80;;
46651;SDS011;32377;52.182;5.398;2022-09-21T06:13:24;17.08;;;7.18;;
46651;SDS011;32377;52.182;5.398;2022-09-21T06:15:50;13.50;;;6.90;;
46651;SDS011;32377;52.182;5.398;2022-09-21T06:18:16;14.98;;;7.40;;
46651;SDS011;32377;52.182;5.398;2022-09-21T06:20:42;19.52;;;7.07;;
46651;SDS011;32377;52.182;5.398;2022-09-21T06:23:09;17.65;;;7.00;;
46651;SDS011;32377;52.182;5.398;2022-09-21T06:25:36;10.30;;;7.13;;
46651;SDS011;32377;52.182;5.398;2022-09-21T06:28:06;17.77;;;6.95;;
46651;SDS011;32377;52.182;5.398;2022-09-21T06:30:34;14.05;;;7.07;;
46651;SDS011;32377;52.182;5.398;2022-09-21T06:33:00;17.35;;;7.10;;
46651;SDS011;32377;52.182;5.398;2022-09-21T06:35:28;12.70;;;7.50;;
46651;SDS011;32377;52.182;5.398;2022-09-21T06:38:01;16.88;;;7.18;;
46651;SDS011;32377;52.182;5.398;2022-09-21T06:40:28;18.83;;;7.53;;
46651;SDS011;32377;52.182;5.398;2022-09-21T06:42:58;17.17;;;6.75;;
46651;SDS011;32377;52.182;5.398;2022-09-21T06:45:25;12.10;;;6.43;;
46651;SDS011;32377;52.182;5.398;2022-09-21T06:47:52;18.23;;;6.72;;
46651;SDS011;32377;52.182;5.398;2022-09-21T06:50:18;16.75;;;7.43;;
46651;SDS011;32377;52.182;5.398;2022-09-21T06:52:44;10.82;;;7.00;;
46651;SDS011;32377;52.182;5.398;2022-09-21T06:55:10;18.13;;;7.85;;
46651;SDS011;32377;52.182;5.398;2022-09-21T06:57:36;20.48;;;8.57;;
46651;SDS011;32377;52.182;5.398;2022-09-21T07:00:03;28.17;;;9.93;;
46651;SDS011;32377;52.182;5.398;2022-09-21T07:02:30;19.10;;;8.63;;
46651;SDS011;32377;52.182;5.398;2022-09-21T07:04:55;34.58;;;10.07;;
46651;SDS011;32377;52.182;5.398;2022-09-21T07:07:23;24.20;;;9.07;;
46651;SDS011;32377;52.182;5.398;2022-09-21T07:09:49;28.33;;;9.02;;
46651;SDS011;32377;52.182;5.398;2022-09-21T07:12:15;22.58;;;9.18;;
46651;SDS011;32377;52.182;5.398;2022-09-21T07:14:42;25.20;;;8.90;;
46651;SDS011;32377;52.182;5.398;2022-09-21T07:17:10;17.70;;;8.45;;
46651;SDS011;32377;52.182;5.398;2022-09-21T07:19:37;11.68;;;7.43;;
46651;SDS011;32377;52.182;5.398;2022-09-21T07:22:03;14.38;;;8.35;;
46651;SDS011;32377;52.182;5.398;2022-09-21T07:24:29;16.35;;;8.40;;
46651;SDS011;32377;52.182;5.398;2022-09-21T07:26:54;11.60;;;7.78;;
46651;SDS011;32377;52.182;5.398;2022-09-21T07:29:20;15.57;;;7.82;;
46651;SDS011;32377;52.182;5.398;2022-09-21T07:31:45;17.08;;;8.05;;
46651;SDS011;32377;52.182;5.398;2022-09-21T07:34:12;13.20;;;8.05;;
46651;SDS011;32377;52.182;5.398;2022-09-21T07:36:37;17.67;;;7.63;;
46651;SDS011;32377;52.182;5.398;2022-09-21T07:39:03;12.25;;;7.45;;
46651;SDS011;32377;52.182;5.398;2022-09-21T07:41:29;11.57;;;7.65;;
46651;SDS011;32377;52.182;5.398;2022-09-21T07:43:54;16.52;;;7.32;;
46651;SDS011;32377;52.182;5.398;2022-09-21T07:46:20;12.23;;;6.80;;
46651;SDS011;32377;52.182;5.398;2022-09-21T07:48:45;10.60;;;6.60;;
46651;SDS011;32377;52.182;5.398;2022-09-21T07:51:12;14.93;;;6.80;;
46651;SDS011;32377;52.182;5.398;2022-09-21T07:53:39;11.57;;;7.00;;
46651;SDS011;32377;52.182;5.398;2022-09-21T07:56:07;15.88;;;7.38;;
46651;SDS011;32377;52.182;5.398;2022-09-21T07:58:35;13.00;;;6.80;;
46651;SDS011;32377;52.182;5.398;2022-09-21T08:01:20;9.82;;;5.75;;
46651;SDS011;32377;52.182;5.398;2022-09-21T08:03:49;13.48;;;5.88;;
46651;SDS011;32377;52.182;5.398;2022-09-21T08:06:15;11.88;;;6.80;;
46651;SDS011;32377;52.182;5.398;2022-09-21T08:08:41;15.05;;;5.55;;
46651;SDS011;32377;52.182;5.398;2022-09-21T08:11:07;8.77;;;5.47;;
46651;SDS011;32377;52.182;5.398;2022-09-21T08:13:33;10.88;;;5.40;;
46651;SDS011;32377;52.182;5.398;2022-09-21T08:15:59;10.73;;;5.53;;
46651;SDS011;32377;52.182;5.398;2022-09-21T08:18:26;8.60;;;5.18;;
46651;SDS011;32377;52.182;5.398;2022-09-21T08:20:55;12.38;;;5.03;;
46651;SDS011;32377;52.182;5.398;2022-09-21T08:23:23;12.00;;;4.65;;
46651;SDS011;32377;52.182;5.398;2022-09-21T08:25:50;10.70;;;4.15;;
46651;SDS011;32377;52.182;5.398;2022-09-21T08:28:16;9.57;;;4.45;;
46651;SDS011;32377;52.182;5.398;2022-09-21T08:30:42;8.30;;;3.97;;
46651;SDS011;32377;52.182;5.398;2022-09-21T08:33:08;9.85;;;3.88;;
46651;SDS011;32377;52.182;5.398;2022-09-21T08:35:34;7.88;;;3.75;;
46651;SDS011;32377;52.182;5.398;2022-09-21T08:38:01;9.82;;;3.70;;
46651;SDS011;32377;52.182;5.398;2022-09-21T08:40:26;12.57;;;3.85;;
46651;SDS011;32377;52.182;5.398;2022-09-21T08:45:40;9.68;;;3.50;;
46651;SDS011;32377;52.182;5.398;2022-09-21T08:48:27;7.50;;;2.80;;
46651;SDS011;32377;52.182;5.398;2022-09-21T08:51:00;9.38;;;3.35;;
46651;SDS011;32377;52.182;5.398;2022-09-21T08:53:38;7.60;;;2.83;;
46651;SDS011;32377;52.182;5.398;2022-09-21T08:56:13;7.72;;;2.70;;
46651;SDS011;32377;52.182;5.398;2022-09-21T08:58:39;8.30;;;2.45;;
46651;SDS011;32377;52.182;5.398;2022-09-21T09:04:25;7.25;;;2.08;;
46651;SDS011;32377;52.182;5.398;2022-09-21T09:23:37;8.70;;;2.13;;
46651;SDS011;32377;52.182;5.398;2022-09-21T09:26:12;7.18;;;2.03;;
46651;SDS011;32377;52.182;5.398;2022-09-21T09:28:46;10.75;;;2.80;;
46651;SDS011;32377;52.182;5.398;2022-09-21T09:31:18;5.10;;;2.00;;
46651;SDS011;32377;52.182;5.398;2022-09-21T09:34:00;7.82;;;1.67;;
46651;SDS011;32377;52.182;5.398;2022-09-21T09:36:28;7.90;;;1.73;;
46651;SDS011;32377;52.182;5.398;2022-09-21T09:38:57;9.85;;;1.67;;
46651;SDS011;32377;52.182;5.398;2022-09-21T09:52:21;8.10;;;1.70;;
46651;SDS011;32377;52.182;5.398;2022-09-21T09:54:47;5.68;;;1.70;;
46651;SDS011;32377;52.182;5.398;2022-09-21T09:57:13;13.73;;;2.05;;
46651;SDS011;32377;52.182;5.398;2022-09-21T09:59:51;6.88;;;1.75;;
46651;SDS011;32377;52.182;5.398;2022-09-21T10:04:55;6.50;;;1.40;;
46651;SDS011;32377;52.182;5.398;2022-09-21T10:07:36;6.10;;;1.58;;
46651;SDS011;32377;52.182;5.398;2022-09-21T10:10:11;8.45;;;1.50;;
46651;SDS011;32377;52.182;5.398;2022-09-21T10:12:47;9.40;;;1.80;;
46651;SDS011;32377;52.182;5.398;2022-09-21T10:15:15;9.85;;;1.48;;
46651;SDS011;32377;52.182;5.398;2022-09-21T10:17:43;10.65;;;1.52;;
46651;SDS011;32377;52.182;5.398;2022-09-21T10:20:17;7.15;;;1.20;;
46651;SDS011;32377;52.182;5.398;2022-09-21T10:22:45;5.97;;;1.75;;
46651;SDS011;32377;52.182;5.398;2022-09-21T10:25:15;7.93;;;1.17;;
46651;SDS011;32377;52.182;5.398;2022-09-21T10:27:43;8.38;;;1.60;;
46651;SDS011;32377;52.182;5.398;2022-09-21T10:32:58;8.48;;;1.63;;
46651;SDS011;32377;52.182;5.398;2022-09-21T10:35:24;7.55;;;1.80;;
46651;SDS011;32377;52.182;5.398;2022-09-21T10:38:10;6.15;;;1.30;;
46651;SDS011;32377;52.182;5.398;2022-09-21T10:40:41;6.60;;;1.60;;
46651;SDS011;32377;52.182;5.398;2022-09-21T10:43:28;5.65;;;1.27;;
46651;SDS011;32377;52.182;5.398;2022-09-21T10:45:58;9.05;;;1.20;;
46651;SDS011;32377;52.182;5.398;2022-09-21T10:48:25;6.85;;;1.58;;
46651;SDS011;32377;52.182;5.398;2022-09-21T10:50:52;6.25;;;1.75;;
46651;SDS011;32377;52.182;5.398;2022-09-21T10:53:32;7.13;;;1.58;;
46651;SDS011;32377;52.182;5.398;2022-09-21T10:56:05;6.10;;;1.67;;
46651;SDS011;32377;52.182;5.398;2022-09-21T10:58:33;3.58;;;1.10;;
46651;SDS011;32377;52.182;5.398;2022-09-21T11:01:12;2.97;;;1.17;;
46651;SDS011;32377;52.182;5.398;2022-09-21T11:03:59;9.52;;;1.42;;
46651;SDS011;32377;52.182;5.398;2022-09-21T11:06:42;7.95;;;1.30;;
46651;SDS011;32377;52.182;5.398;2022-09-21T11:09:44;2.58;;;0.75;;
46651;SDS011;32377;52.182;5.398;2022-09-21T11:15:29;7.55;;;1.35;;
46651;SDS011;32377;52.182;5.398;2022-09-21T11:20:50;2.67;;;1.20;;
46651;SDS011;32377;52.182;5.398;2022-09-21T11:23:22;3.17;;;1.08;;
46651;SDS011;32377;52.182;5.398;2022-09-21T11:26:01;45.35;;;4.40;;
46651;SDS011;32377;52.182;5.398;2022-09-21T11:28:58;4.65;;;1.20;;
46651;SDS011;32377;52.182;5.398;2022-09-21T11:45:02;3.53;;;0.88;;
46651;SDS011;32377;52.182;5.398;2022-09-21T11:47:45;5.07;;;1.00;;
46651;SDS011;32377;52.182;5.398;2022-09-21T11:50:34;6.85;;;1.30;;
46651;SDS011;32377;52.182;5.398;2022-09-21T12:15:20;6.18;;;1.10;;
46651;SDS011;32377;52.182;5.398;2022-09-21T12:18:01;5.55;;;1.20;;
46651;SDS011;32377;52.182;5.398;2022-09-21T12:21:08;5.00;;;1.08;;
46651;SDS011;32377;52.182;5.398;2022-09-21T12:23:45;2.70;;;0.98;;
46651;SDS011;32377;52.182;5.398;2022-09-21T12:26:20;3.30;;;1.20;;
46651;SDS011;32377;52.182;5.398;2022-09-21T12:28:55;5.47;;;1.20;;
46651;SDS011;32377;52.182;5.398;2022-09-21T12:34:21;4.50;;;0.95;;
46651;SDS011;32377;52.182;5.398;2022-09-21T12:37:04;5.93;;;1.05;;
46651;SDS011;32377;52.182;5.398;2022-09-21T12:45:11;4.60;;;1.30;;
46651;SDS011;32377;52.182;5.398;2022-09-21T12:47:45;3.70;;;1.08;;
46651;SDS011;32377;52.182;5.398;2022-09-21T12:53:04;5.72;;;1.05;;
46651;SDS011;32377;52.182;5.398;2022-09-21T12:55:33;5.20;;;1.35;;
46651;SDS011;32377;52.182;5.398;2022-09-21T13:03:31;2.40;;;0.98;;
46651;SDS011;32377;52.182;5.398;2022-09-21T13:06:13;4.18;;;1.08;;
46651;SDS011;32377;52.182;5.398;2022-09-21T13:08:51;5.00;;;1.08;;
46651;SDS011;32377;52.182;5.398;2022-09-21T13:11:18;6.93;;;1.40;;
46651;SDS011;32377;52.182;5.398;2022-09-21T13:13:46;1.83;;;0.93;;
46651;SDS011;32377;52.182;5.398;2022-09-21T13:16:27;5.10;;;1.13;;
46651;SDS011;32377;52.182;5.398;2022-09-21T13:18:58;4.15;;;1.20;;
46651;SDS011;32377;52.182;5.398;2022-09-21T13:21:26;7.75;;;1.52;;
46651;SDS011;32377;52.182;5.398;2022-09-21T13:23:55;4.80;;;1.52;;
46651;SDS011;32377;52.182;5.398;2022-09-21T13:26:39;8.52;;;1.67;;
46651;SDS011;32377;52.182;5.398;2022-09-21T13:32:20;10.23;;;1.83;;
46651;SDS011;32377;52.182;5.398;2022-09-21T13:34:38;7.55;;;1.52;;
46651;SDS011;32377;52.182;5.398;2022-09-21T13:47:40;7.25;;;1.45;;
46651;SDS011;32377;52.182;5.398;2022-09-21T13:50:21;3.10;;;1.17;;
46651;SDS011;32377;52.182;5.398;2022-09-21T13:55:26;6.15;;;1.42;;
46651;SDS011;32377;52.182;5.398;2022-09-21T13:57:59;6.05;;;1.10;;
46651;SDS011;32377;52.182;5.398;2022-09-21T14:01:02;3.45;;;1.30;;
46651;SDS011;32377;52.182;5.398;2022-09-21T14:03:26;4.13;;;1.20;;
46651;SDS011;32377;52.182;5.398;2022-09-21T14:06:13;7.45;;;1.08;;
46651;SDS011;32377;52.182;5.398;2022-09-21T14:08:50;6.68;;;1.00;;
46651;SDS011;32377;52.182;5.398;2022-09-21T14:11:35;4.40;;;0.90;;
46651;SDS011;32377;52.182;5.398;2022-09-21T14:14:26;4.38;;;1.15;;
46651;SDS011;32377;52.182;5.398;2022-09-21T14:17:00;6.07;;;1.42;;
46651;SDS011;32377;52.182;5.398;2022-09-21T14:24:47;7.65;;;1.17;;
46651;SDS011;32377;52.182;5.398;2022-09-21T14:27:29;7.10;;;1.40;;
46651;SDS011;32377;52.182;5.398;2022-09-21T14:30:04;5.10;;;1.10;;
46651;SDS011;32377;52.182;5.398;2022-09-21T14:32:51;4.03;;;1.00;;
46651;SDS011;32377;52.182;5.398;2022-09-21T14:35:31;3.67;;;1.00;;
46651;SDS011;32377;52.182;5.398;2022-09-21T14:38:00;6.13;;;1.42;;
46651;SDS011;32377;52.182;5.398;2022-09-21T14:40:30;6.03;;;1.33;;
46651;SDS011;32377;52.182;5.398;2022-09-21T14:43:06;4.10;;;1.25;;
46651;SDS011;32377;52.182;5.398;2022-09-21T14:45:54;5.05;;;1.10;;
46651;SDS011;32377;52.182;5.398;2022-09-21T14:53:57;6.50;;;1.40;;
46651;SDS011;32377;52.182;5.398;2022-09-21T14:59:11;2.95;;;1.00;;
46651;SDS011;32377;52.182;5.398;2022-09-21T15:02:28;5.50;;;1.33;;
46651;SDS011;32377;52.182;5.398;2022-09-21T15:05:13;5.97;;;1.27;;
46651;SDS011;32377;52.182;5.398;2022-09-21T15:21:39;3.63;;;1.35;;
46651;SDS011;32377;52.182;5.398;2022-09-21T15:24:26;5.07;;;1.25;;
46651;SDS011;32377;52.182;5.398;2022-09-21T15:27:00;4.47;;;1.20;;
46651;SDS011;32377;52.182;5.398;2022-09-21T15:29:28;4.43;;;0.85;;
46651;SDS011;32377;52.182;5.398;2022-09-21T15:31:55;5.38;;;1.05;;
46651;SDS011;32377;52.182;5.398;2022-09-21T15:34:21;6.38;;;0.93;;
46651;SDS011;32377;52.182;5.398;2022-09-21T15:36:47;6.07;;;1.05;;
46651;SDS011;32377;52.182;5.398;2022-09-21T15:39:23;4.70;;;1.20;;
46651;SDS011;32377;52.182;5.398;2022-09-21T15:44:32;5.55;;;1.05;;
46651;SDS011;32377;52.182;5.398;2022-09-21T15:46:58;2.42;;;1.10;;
46651;SDS011;32377;52.182;5.398;2022-09-21T15:49:27;8.70;;;1.40;;
46651;SDS011;32377;52.182;5.398;2022-09-21T15:54:47;4.47;;;1.38;;
46651;SDS011;32377;52.182;5.398;2022-09-21T15:57:21;4.70;;;1.55;;
46651;SDS011;32377;52.182;5.398;2022-09-21T16:00:25;3.72;;;1.00;;
46651;SDS011;32377;52.182;5.398;2022-09-21T16:02:56;6.28;;;1.27;;
46651;SDS011;32377;52.182;5.398;2022-09-21T16:05:28;7.32;;;1.30;;
46651;SDS011;32377;52.182;5.398;2022-09-21T16:08:28;4.07;;;0.93;;
46651;SDS011;32377;52.182;5.398;2022-09-21T16:11:16;3.40;;;1.10;;
46651;SDS011;32377;52.182;5.398;2022-09-21T16:14:03;5.07;;;0.90;;
46651;SDS011;32377;52.182;5.398;2022-09-21T16:19:44;2.95;;;1.00;;
46651;SDS011;32377;52.182;5.398;2022-09-21T16:22:47;4.70;;;1.35;;
46651;SDS011;32377;52.182;5.398;2022-09-21T16:25:31;3.72;;;1.02;;
46651;SDS011;32377;52.182;5.398;2022-09-21T16:28:02;4.80;;;1.38;;
46651;SDS011;32377;52.182;5.398;2022-09-21T16:35:57;2.65;;;1.13;;
46651;SDS011;32377;52.182;5.398;2022-09-21T16:38:24;5.80;;;1.23;;
46651;SDS011;32377;52.182;5.398;2022-09-21T16:40:50;6.55;;;1.15;;
46651;SDS011;32377;52.182;5.398;2022-09-21T16:43:17;6.78;;;1.08;;
46651;SDS011;32377;52.182;5.398;2022-09-21T16:45:44;6.35;;;0.90;;
46651;SDS011;32377;52.182;5.398;2022-09-21T16:48:11;3.65;;;0.90;;
46651;SDS011;32377;52.182;5.398;2022-09-21T16:50:37;3.13;;;1.02;;
46651;SDS011;32377;52.182;5.398;2022-09-21T16:53:02;4.30;;;1.20;;
46651;SDS011;32377;52.182;5.398;2022-09-21T16:55:28;6.95;;;1.55;;
46651;SDS011;32377;52.182;5.398;2022-09-21T16:57:54;6.93;;;1.35;;
46651;SDS011;32377;52.182;5.398;2022-09-21T17:00:20;5.65;;;1.33;;
46651;SDS011;32377;52.182;5.398;2022-09-21T17:02:46;8.20;;;1.80;;
46651;SDS011;32377;52.182;5.398;2022-09-21T17:05:12;6.55;;;1.35;;
46651;SDS011;32377;52.182;5.398;2022-09-21T17:07:46;4.90;;;1.48;;
46651;SDS011;32377;52.182;5.398;2022-09-21T17:10:17;5.68;;;1.20;;
46651;SDS011;32377;52.182;5.398;2022-09-21T17:12:44;5.53;;;1.35;;
46651;SDS011;32377;52.182;5.398;2022-09-21T17:15:11;7.78;;;1.30;;
46651;SDS011;32377;52.182;5.398;2022-09-21T17:17:37;4.20;;;1.15;;
46651;SDS011;32377;52.182;5.398;2022-09-21T17:20:13;10.70;;;1.65;;
46651;SDS011;32377;52.182;5.398;2022-09-21T17:23:03;6.50;;;1.42;;
46651;SDS011;32377;52.182;5.398;2022-09-21T17:25:29;5.95;;;1.45;;
46651;SDS011;32377;52.182;5.398;2022-09-21T17:27:57;5.15;;;1.50;;
46651;SDS011;32377;52.182;5.398;2022-09-21T17:30:23;7.78;;;1.73;;
46651;SDS011;32377;52.182;5.398;2022-09-21T17:32:50;3.88;;;1.55;;
46651;SDS011;32377;52.182;5.398;2022-09-21T17:35:34;7.05;;;1.63;;
46651;SDS011;32377;52.182;5.398;2022-09-21T17:38:03;5.35;;;1.60;;
46651;SDS011;32377;52.182;5.398;2022-09-21T17:40:29;9.73;;;1.45;;
46651;SDS011;32377;52.182;5.398;2022-09-21T17:43:12;7.18;;;1.92;;
46651;SDS011;32377;52.182;5.398;2022-09-21T17:45:51;3.53;;;1.38;;
46651;SDS011;32377;52.182;5.398;2022-09-21T17:48:39;4.72;;;1.35;;
46651;SDS011;32377;52.182;5.398;2022-09-21T17:51:05;8.02;;;2.00;;
46651;SDS011;32377;52.182;5.398;2022-09-21T17:53:31;4.07;;;1.48;;
46651;SDS011;32377;52.182;5.398;2022-09-21T17:59:01;4.28;;;1.60;;
46651;SDS011;32377;52.182;5.398;2022-09-21T18:01:35;4.93;;;1.65;;
46651;SDS011;32377;52.182;5.398;2022-09-21T18:04:06;9.38;;;1.98;;
46651;SDS011;32377;52.182;5.398;2022-09-21T18:06:34;8.38;;;1.75;;
46651;SDS011;32377;52.182;5.398;2022-09-21T18:09:00;8.57;;;1.88;;
46651;SDS011;32377;52.182;5.398;2022-09-21T18:11:32;8.40;;;2.38;;
46651;SDS011;32377;52.182;5.398;2022-09-21T18:14:44;6.18;;;2.45;;
46651;SDS011;32377;52.182;5.398;2022-09-21T18:22:59;9.20;;;2.13;;
46651;SDS011;32377;52.182;5.398;2022-09-21T18:25:32;6.38;;;1.88;;